Terminal Aerodrome Forecast
Issued by NWS

Home | Current Version | Previous Version | Graphics & Text | Print | Product List | Glossary On
Versions: 1 2 3 4 5 6 7 8 9 10 11 12 13 14 15 16 17 18
586
FTUS43 KICT 241732
TAFCNU
TAF
KCNU 241732Z 2418/2518 20012G20KT P6SM SCT050
     FM250200 16006KT P6SM -SHRA VCTS BKN040CB
     FM251000 23004KT P6SM -SHRA VCTS OVC030CB=

USA.gov is the U.S. government's official web portal to all federal, state and local government web resources and services.